sensor_id;sensor_type;location;lat;lon;timestamp;P1;durP1;ratioP1;P2;durP2;ratioP2
65234;SDS011;51820;48.374;10.930;2024-03-07T00:01:13;19.27;;;9.52;;
65234;SDS011;51820;48.374;10.930;2024-03-07T00:03:42;19.00;;;9.10;;
65234;SDS011;51820;48.374;10.930;2024-03-07T00:06:11;19.33;;;9.68;;
65234;SDS011;51820;48.374;10.930;2024-03-07T00:11:30;20.90;;;9.53;;
65234;SDS011;51820;48.374;10.930;2024-03-07T00:13:59;20.40;;;9.20;;
65234;SDS011;51820;48.374;10.930;2024-03-07T00:16:27;20.92;;;10.40;;
65234;SDS011;51820;48.374;10.930;2024-03-07T00:18:55;21.13;;;9.98;;
65234;SDS011;51820;48.374;10.930;2024-03-07T00:21:24;23.25;;;9.63;;
65234;SDS011;51820;48.374;10.930;2024-03-07T00:23:52;20.33;;;9.70;;
65234;SDS011;51820;48.374;10.930;2024-03-07T00:26:24;22.73;;;11.18;;
65234;SDS011;51820;48.374;10.930;2024-03-07T00:28:59;21.30;;;9.82;;
65234;SDS011;51820;48.374;10.930;2024-03-07T00:31:27;19.08;;;9.70;;
65234;SDS011;51820;48.374;10.930;2024-03-07T00:33:56;18.25;;;9.82;;
65234;SDS011;51820;48.374;10.930;2024-03-07T00:36:38;21.70;;;10.00;;
65234;SDS011;51820;48.374;10.930;2024-03-07T00:39:07;22.05;;;10.63;;
65234;SDS011;51820;48.374;10.930;2024-03-07T00:41:38;19.48;;;9.65;;
65234;SDS011;51820;48.374;10.930;2024-03-07T00:44:08;20.15;;;9.73;;
65234;SDS011;51820;48.374;10.930;2024-03-07T00:46:37;20.48;;;10.25;;
65234;SDS011;51820;48.374;10.930;2024-03-07T00:49:05;19.20;;;9.57;;
65234;SDS011;51820;48.374;10.930;2024-03-07T00:51:34;21.35;;;10.23;;
65234;SDS011;51820;48.374;10.930;2024-03-07T00:54:05;21.88;;;10.98;;
65234;SDS011;51820;48.374;10.930;2024-03-07T00:56:34;21.13;;;10.45;;
65234;SDS011;51820;48.374;10.930;2024-03-07T00:59:03;22.27;;;11.18;;
65234;SDS011;51820;48.374;10.930;2024-03-07T01:01:33;24.00;;;10.83;;
65234;SDS011;51820;48.374;10.930;2024-03-07T01:04:03;21.58;;;10.95;;
65234;SDS011;51820;48.374;10.930;2024-03-07T01:06:31;22.73;;;10.50;;
65234;SDS011;51820;48.374;10.930;2024-03-07T01:09:00;24.73;;;11.60;;
65234;SDS011;51820;48.374;10.930;2024-03-07T01:11:28;23.23;;;11.05;;
65234;SDS011;51820;48.374;10.930;2024-03-07T01:13:57;22.87;;;10.80;;
65234;SDS011;51820;48.374;10.930;2024-03-07T01:16:26;23.95;;;10.27;;
65234;SDS011;51820;48.374;10.930;2024-03-07T01:18:55;23.00;;;11.18;;
65234;SDS011;51820;48.374;10.930;2024-03-07T01:21:24;22.75;;;11.32;;
65234;SDS011;51820;48.374;10.930;2024-03-07T01:23:52;24.67;;;10.45;;
65234;SDS011;51820;48.374;10.930;2024-03-07T01:26:21;23.50;;;11.87;;
65234;SDS011;51820;48.374;10.930;2024-03-07T01:28:51;25.08;;;10.70;;
65234;SDS011;51820;48.374;10.930;2024-03-07T01:31:21;23.77;;;11.68;;
65234;SDS011;51820;48.374;10.930;2024-03-07T01:33:49;24.65;;;11.70;;
65234;SDS011;51820;48.374;10.930;2024-03-07T01:36:19;23.05;;;11.63;;
65234;SDS011;51820;48.374;10.930;2024-03-07T01:38:48;24.57;;;11.70;;
65234;SDS011;51820;48.374;10.930;2024-03-07T01:41:18;24.02;;;11.75;;
65234;SDS011;51820;48.374;10.930;2024-03-07T01:43:46;25.92;;;11.63;;
65234;SDS011;51820;48.374;10.930;2024-03-07T01:46:15;26.10;;;12.57;;
65234;SDS011;51820;48.374;10.930;2024-03-07T01:48:43;24.27;;;12.05;;
65234;SDS011;51820;48.374;10.930;2024-03-07T01:51:13;26.13;;;12.43;;
65234;SDS011;51820;48.374;10.930;2024-03-07T01:53:43;25.40;;;11.95;;
65234;SDS011;51820;48.374;10.930;2024-03-07T01:56:12;25.55;;;12.02;;
65234;SDS011;51820;48.374;10.930;2024-03-07T01:58:40;24.75;;;11.68;;
65234;SDS011;51820;48.374;10.930;2024-03-07T02:01:10;24.63;;;12.82;;
65234;SDS011;51820;48.374;10.930;2024-03-07T02:03:41;26.27;;;12.10;;
65234;SDS011;51820;48.374;10.930;2024-03-07T02:06:09;25.33;;;12.30;;
65234;SDS011;51820;48.374;10.930;2024-03-07T02:08:43;29.20;;;12.00;;
65234;SDS011;51820;48.374;10.930;2024-03-07T02:11:32;26.88;;;12.20;;
65234;SDS011;51820;48.374;10.930;2024-03-07T02:14:06;24.83;;;11.40;;
65234;SDS011;51820;48.374;10.930;2024-03-07T02:16:40;23.40;;;10.77;;
65234;SDS011;51820;48.374;10.930;2024-03-07T02:19:09;22.45;;;11.32;;
65234;SDS011;51820;48.374;10.930;2024-03-07T02:21:44;24.95;;;10.98;;
65234;SDS011;51820;48.374;10.930;2024-03-07T02:24:12;22.70;;;11.15;;
65234;SDS011;51820;48.374;10.930;2024-03-07T02:26:42;22.35;;;10.98;;
65234;SDS011;51820;48.374;10.930;2024-03-07T02:29:10;22.83;;;10.90;;
65234;SDS011;51820;48.374;10.930;2024-03-07T02:31:39;24.48;;;12.13;;
65234;SDS011;51820;48.374;10.930;2024-03-07T02:34:08;23.45;;;10.82;;
65234;SDS011;51820;48.374;10.930;2024-03-07T02:36:36;24.08;;;12.10;;
65234;SDS011;51820;48.374;10.930;2024-03-07T02:39:06;23.70;;;12.00;;
65234;SDS011;51820;48.374;10.930;2024-03-07T02:41:36;24.07;;;11.33;;
65234;SDS011;51820;48.374;10.930;2024-03-07T02:44:04;26.42;;;12.27;;
65234;SDS011;51820;48.374;10.930;2024-03-07T02:46:33;23.70;;;11.77;;
65234;SDS011;51820;48.374;10.930;2024-03-07T02:49:01;22.33;;;10.93;;
65234;SDS011;51820;48.374;10.930;2024-03-07T02:51:30;27.50;;;11.95;;
65234;SDS011;51820;48.374;10.930;2024-03-07T02:53:58;28.57;;;12.17;;
65234;SDS011;51820;48.374;10.930;2024-03-07T02:56:28;22.80;;;11.80;;
65234;SDS011;51820;48.374;10.930;2024-03-07T02:58:57;23.00;;;12.32;;
65234;SDS011;51820;48.374;10.930;2024-03-07T03:01:29;24.38;;;11.25;;
65234;SDS011;51820;48.374;10.930;2024-03-07T03:03:58;26.67;;;12.82;;
65234;SDS011;51820;48.374;10.930;2024-03-07T03:06:26;25.67;;;11.87;;
65234;SDS011;51820;48.374;10.930;2024-03-07T03:08:55;26.25;;;12.40;;
65234;SDS011;51820;48.374;10.930;2024-03-07T03:11:23;23.20;;;11.77;;
65234;SDS011;51820;48.374;10.930;2024-03-07T03:13:55;33.90;;;12.13;;
65234;SDS011;51820;48.374;10.930;2024-03-07T03:16:23;23.33;;;11.45;;
65234;SDS011;51820;48.374;10.930;2024-03-07T03:19:12;24.70;;;11.53;;
65234;SDS011;51820;48.374;10.930;2024-03-07T03:21:41;26.45;;;11.70;;
65234;SDS011;51820;48.374;10.930;2024-03-07T03:24:10;21.83;;;10.50;;
65234;SDS011;51820;48.374;10.930;2024-03-07T03:26:38;24.00;;;11.70;;
65234;SDS011;51820;48.374;10.930;2024-03-07T03:29:10;24.33;;;11.45;;
65234;SDS011;51820;48.374;10.930;2024-03-07T03:31:40;23.63;;;11.00;;
65234;SDS011;51820;48.374;10.930;2024-03-07T03:34:08;24.23;;;11.65;;
65234;SDS011;51820;48.374;10.930;2024-03-07T03:36:37;26.70;;;11.95;;
65234;SDS011;51820;48.374;10.930;2024-03-07T03:39:09;23.65;;;11.15;;
65234;SDS011;51820;48.374;10.930;2024-03-07T03:41:40;26.92;;;12.70;;
65234;SDS011;51820;48.374;10.930;2024-03-07T03:44:10;26.10;;;11.70;;
65234;SDS011;51820;48.374;10.930;2024-03-07T03:46:39;26.48;;;11.80;;
65234;SDS011;51820;48.374;10.930;2024-03-07T03:49:08;25.38;;;13.43;;
65234;SDS011;51820;48.374;10.930;2024-03-07T03:51:36;26.98;;;12.95;;
65234;SDS011;51820;48.374;10.930;2024-03-07T03:54:04;27.75;;;13.52;;
65234;SDS011;51820;48.374;10.930;2024-03-07T03:56:33;31.97;;;15.53;;
65234;SDS011;51820;48.374;10.930;2024-03-07T03:59:01;27.77;;;14.23;;
65234;SDS011;51820;48.374;10.930;2024-03-07T04:01:32;34.58;;;15.52;;
65234;SDS011;51820;48.374;10.930;2024-03-07T04:04:02;31.23;;;15.02;;
65234;SDS011;51820;48.374;10.930;2024-03-07T04:06:31;33.58;;;15.73;;
65234;SDS011;51820;48.374;10.930;2024-03-07T04:09:00;33.47;;;16.53;;
65234;SDS011;51820;48.374;10.930;2024-03-07T04:11:31;34.17;;;14.93;;
65234;SDS011;51820;48.374;10.930;2024-03-07T04:14:00;34.42;;;15.32;;
65234;SDS011;51820;48.374;10.930;2024-03-07T04:16:28;32.38;;;14.82;;
65234;SDS011;51820;48.374;10.930;2024-03-07T04:18:58;33.13;;;16.48;;
65234;SDS011;51820;48.374;10.930;2024-03-07T04:21:27;32.77;;;16.20;;
65234;SDS011;51820;48.374;10.930;2024-03-07T04:23:55;32.15;;;15.68;;
65234;SDS011;51820;48.374;10.930;2024-03-07T04:26:24;34.58;;;15.60;;
65234;SDS011;51820;48.374;10.930;2024-03-07T04:28:53;30.92;;;15.00;;
65234;SDS011;51820;48.374;10.930;2024-03-07T04:31:22;39.75;;;16.83;;
65234;SDS011;51820;48.374;10.930;2024-03-07T04:33:50;34.67;;;15.67;;
65234;SDS011;51820;48.374;10.930;2024-03-07T04:36:21;35.25;;;16.23;;
65234;SDS011;51820;48.374;10.930;2024-03-07T04:38:49;34.35;;;16.67;;
65234;SDS011;51820;48.374;10.930;2024-03-07T04:41:19;36.45;;;16.08;;
65234;SDS011;51820;48.374;10.930;2024-03-07T04:43:47;39.00;;;17.13;;
65234;SDS011;51820;48.374;10.930;2024-03-07T04:46:16;36.87;;;16.17;;
65234;SDS011;51820;48.374;10.930;2024-03-07T04:48:44;36.58;;;16.60;;
65234;SDS011;51820;48.374;10.930;2024-03-07T04:51:12;37.03;;;16.50;;
65234;SDS011;51820;48.374;10.930;2024-03-07T04:53:42;35.15;;;16.88;;
65234;SDS011;51820;48.374;10.930;2024-03-07T04:56:11;36.47;;;17.50;;
65234;SDS011;51820;48.374;10.930;2024-03-07T04:58:40;45.60;;;17.10;;
65234;SDS011;51820;48.374;10.930;2024-03-07T05:01:12;34.95;;;17.38;;
65234;SDS011;51820;48.374;10.930;2024-03-07T05:03:43;37.55;;;17.17;;
65234;SDS011;51820;48.374;10.930;2024-03-07T05:06:11;34.08;;;16.67;;
65234;SDS011;51820;48.374;10.930;2024-03-07T05:08:39;36.60;;;17.45;;
65234;SDS011;51820;48.374;10.930;2024-03-07T05:11:11;38.13;;;17.10;;
65234;SDS011;51820;48.374;10.930;2024-03-07T05:13:40;37.35;;;17.67;;
65234;SDS011;51820;48.374;10.930;2024-03-07T05:16:09;45.38;;;18.15;;
65234;SDS011;51820;48.374;10.930;2024-03-07T05:18:37;39.70;;;18.33;;
65234;SDS011;51820;48.374;10.930;2024-03-07T05:21:07;38.75;;;17.13;;
65234;SDS011;51820;48.374;10.930;2024-03-07T05:23:49;38.50;;;17.37;;
65234;SDS011;51820;48.374;10.930;2024-03-07T05:26:19;41.30;;;17.70;;
65234;SDS011;51820;48.374;10.930;2024-03-07T05:28:48;40.13;;;17.35;;
65234;SDS011;51820;48.374;10.930;2024-03-07T05:31:18;38.22;;;17.48;;
65234;SDS011;51820;48.374;10.930;2024-03-07T05:33:47;39.65;;;17.80;;
65234;SDS011;51820;48.374;10.930;2024-03-07T05:36:15;41.20;;;17.27;;
65234;SDS011;51820;48.374;10.930;2024-03-07T05:38:44;35.78;;;17.52;;
65234;SDS011;51820;48.374;10.930;2024-03-07T05:41:13;40.42;;;17.90;;
65234;SDS011;51820;48.374;10.930;2024-03-07T05:43:43;41.67;;;18.38;;
65234;SDS011;51820;48.374;10.930;2024-03-07T05:46:11;37.63;;;16.50;;
65234;SDS011;51820;48.374;10.930;2024-03-07T05:48:40;36.90;;;16.83;;
65234;SDS011;51820;48.374;10.930;2024-03-07T05:51:09;40.35;;;19.42;;
65234;SDS011;51820;48.374;10.930;2024-03-07T05:53:38;42.72;;;17.90;;
65234;SDS011;51820;48.374;10.930;2024-03-07T05:56:07;36.97;;;17.67;;
65234;SDS011;51820;48.374;10.930;2024-03-07T05:58:35;41.08;;;17.88;;
65234;SDS011;51820;48.374;10.930;2024-03-07T06:01:05;42.27;;;18.07;;
65234;SDS011;51820;48.374;10.930;2024-03-07T06:03:34;44.05;;;19.75;;
65234;SDS011;51820;48.374;10.930;2024-03-07T06:06:03;52.53;;;19.90;;
65234;SDS011;51820;48.374;10.930;2024-03-07T06:08:37;42.95;;;18.02;;
65234;SDS011;51820;48.374;10.930;2024-03-07T06:11:08;41.60;;;19.27;;
65234;SDS011;51820;48.374;10.930;2024-03-07T06:13:37;43.90;;;17.87;;
65234;SDS011;51820;48.374;10.930;2024-03-07T06:16:07;42.40;;;19.10;;
65234;SDS011;51820;48.374;10.930;2024-03-07T06:18:35;40.20;;;18.88;;
65234;SDS011;51820;48.374;10.930;2024-03-07T06:21:04;40.15;;;17.73;;
65234;SDS011;51820;48.374;10.930;2024-03-07T06:23:33;40.28;;;18.23;;
65234;SDS011;51820;48.374;10.930;2024-03-07T06:26:01;39.17;;;17.97;;
65234;SDS011;51820;48.374;10.930;2024-03-07T06:28:39;43.15;;;18.45;;
65234;SDS011;51820;48.374;10.930;2024-03-07T06:31:08;42.20;;;20.00;;
65234;SDS011;51820;48.374;10.930;2024-03-07T06:33:37;38.38;;;17.90;;
65234;SDS011;51820;48.374;10.930;2024-03-07T06:36:06;41.80;;;18.58;;
65234;SDS011;51820;48.374;10.930;2024-03-07T06:38:35;39.23;;;17.87;;
65234;SDS011;51820;48.374;10.930;2024-03-07T06:41:03;40.80;;;18.40;;
65234;SDS011;51820;48.374;10.930;2024-03-07T06:43:32;45.20;;;19.33;;
65234;SDS011;51820;48.374;10.930;2024-03-07T06:46:00;43.85;;;19.33;;
65234;SDS011;51820;48.374;10.930;2024-03-07T06:48:30;43.50;;;18.75;;
65234;SDS011;51820;48.374;10.930;2024-03-07T06:50:59;40.30;;;18.37;;
65234;SDS011;51820;48.374;10.930;2024-03-07T06:53:28;36.58;;;17.83;;
65234;SDS011;51820;48.374;10.930;2024-03-07T06:55:57;48.88;;;18.90;;
65234;SDS011;51820;48.374;10.930;2024-03-07T06:58:25;42.70;;;18.80;;
65234;SDS011;51820;48.374;10.930;2024-03-07T07:00:59;42.58;;;18.75;;
65234;SDS011;51820;48.374;10.930;2024-03-07T07:03:28;44.53;;;19.17;;
65234;SDS011;51820;48.374;10.930;2024-03-07T07:05:58;44.55;;;19.90;;
65234;SDS011;51820;48.374;10.930;2024-03-07T07:08:27;72.68;;;31.45;;
65234;SDS011;51820;48.374;10.930;2024-03-07T07:10:59;64.32;;;28.92;;
65234;SDS011;51820;48.374;10.930;2024-03-07T07:13:30;50.97;;;22.10;;
65234;SDS011;51820;48.374;10.930;2024-03-07T07:15:59;42.07;;;19.80;;
65234;SDS011;51820;48.374;10.930;2024-03-07T07:18:29;52.50;;;18.50;;
65234;SDS011;51820;48.374;10.930;2024-03-07T07:20:59;43.17;;;18.35;;
65234;SDS011;51820;48.374;10.930;2024-03-07T07:23:30;42.10;;;18.88;;
65234;SDS011;51820;48.374;10.930;2024-03-07T07:25:58;40.90;;;19.40;;
65234;SDS011;51820;48.374;10.930;2024-03-07T07:28:28;41.27;;;18.63;;
65234;SDS011;51820;48.374;10.930;2024-03-07T07:30:57;43.70;;;18.58;;
65234;SDS011;51820;48.374;10.930;2024-03-07T07:33:25;44.85;;;18.77;;
65234;SDS011;51820;48.374;10.930;2024-03-07T07:35:54;47.65;;;19.40;;
65234;SDS011;51820;48.374;10.930;2024-03-07T07:38:24;49.78;;;18.88;;
65234;SDS011;51820;48.374;10.930;2024-03-07T07:40:52;48.17;;;19.53;;
65234;SDS011;51820;48.374;10.930;2024-03-07T07:43:21;42.08;;;17.35;;
65234;SDS011;51820;48.374;10.930;2024-03-07T07:46:03;40.05;;;17.83;;
65234;SDS011;51820;48.374;10.930;2024-03-07T07:48:31;44.05;;;18.25;;
65234;SDS011;51820;48.374;10.930;2024-03-07T07:51:00;40.40;;;17.98;;
65234;SDS011;51820;48.374;10.930;2024-03-07T07:53:33;45.93;;;18.73;;
65234;SDS011;51820;48.374;10.930;2024-03-07T07:56:02;44.25;;;19.33;;
65234;SDS011;51820;48.374;10.930;2024-03-07T07:58:31;45.83;;;20.05;;
65234;SDS011;51820;48.374;10.930;2024-03-07T08:00:59;40.65;;;19.92;;
65234;SDS011;51820;48.374;10.930;2024-03-07T08:03:29;50.05;;;19.80;;
65234;SDS011;51820;48.374;10.930;2024-03-07T08:05:59;44.33;;;19.70;;
65234;SDS011;51820;48.374;10.930;2024-03-07T08:08:29;43.25;;;19.73;;
65234;SDS011;51820;48.374;10.930;2024-03-07T08:10:59;44.13;;;20.42;;
65234;SDS011;51820;48.374;10.930;2024-03-07T08:13:29;48.05;;;19.75;;
65234;SDS011;51820;48.374;10.930;2024-03-07T08:15:57;41.25;;;17.83;;
65234;SDS011;51820;48.374;10.930;2024-03-07T08:18:25;43.37;;;19.27;;
65234;SDS011;51820;48.374;10.930;2024-03-07T08:20:54;43.97;;;19.80;;
65234;SDS011;51820;48.374;10.930;2024-03-07T08:23:22;43.45;;;19.05;;
65234;SDS011;51820;48.374;10.930;2024-03-07T08:25:53;43.97;;;19.42;;
65234;SDS011;51820;48.374;10.930;2024-03-07T08:28:23;44.15;;;18.42;;
65234;SDS011;51820;48.374;10.930;2024-03-07T08:30:51;41.43;;;20.60;;
65234;SDS011;51820;48.374;10.930;2024-03-07T08:33:21;48.08;;;20.10;;
65234;SDS011;51820;48.374;10.930;2024-03-07T08:35:50;47.35;;;19.92;;
65234;SDS011;51820;48.374;10.930;2024-03-07T08:38:19;41.53;;;19.70;;
65234;SDS011;51820;48.374;10.930;2024-03-07T08:40:48;45.10;;;20.85;;
65234;SDS011;51820;48.374;10.930;2024-03-07T08:43:16;44.43;;;19.37;;
65234;SDS011;51820;48.374;10.930;2024-03-07T08:45:46;41.20;;;19.67;;
65234;SDS011;51820;48.374;10.930;2024-03-07T08:48:15;42.25;;;19.38;;
65234;SDS011;51820;48.374;10.930;2024-03-07T08:50:43;44.60;;;19.38;;
65234;SDS011;51820;48.374;10.930;2024-03-07T08:53:12;38.42;;;18.73;;
65234;SDS011;51820;48.374;10.930;2024-03-07T08:55:41;52.63;;;20.63;;
65234;SDS011;51820;48.374;10.930;2024-03-07T08:58:09;47.22;;;20.17;;
65234;SDS011;51820;48.374;10.930;2024-03-07T09:00:38;49.53;;;20.45;;
65234;SDS011;51820;48.374;10.930;2024-03-07T09:03:08;41.40;;;19.50;;
65234;SDS011;51820;48.374;10.930;2024-03-07T09:05:39;46.70;;;19.98;;
65234;SDS011;51820;48.374;10.930;2024-03-07T09:08:09;51.87;;;19.00;;
65234;SDS011;51820;48.374;10.930;2024-03-07T09:10:38;44.45;;;20.60;;
65234;SDS011;51820;48.374;10.930;2024-03-07T09:13:09;44.25;;;19.77;;
65234;SDS011;51820;48.374;10.930;2024-03-07T09:15:37;46.45;;;20.13;;
65234;SDS011;51820;48.374;10.930;2024-03-07T09:18:07;45.95;;;20.23;;
65234;SDS011;51820;48.374;10.930;2024-03-07T09:20:36;45.90;;;19.53;;
65234;SDS011;51820;48.374;10.930;2024-03-07T09:23:05;45.20;;;20.33;;
65234;SDS011;51820;48.374;10.930;2024-03-07T09:25:34;44.13;;;20.60;;
65234;SDS011;51820;48.374;10.930;2024-03-07T09:28:03;43.60;;;19.95;;
65234;SDS011;51820;48.374;10.930;2024-03-07T09:30:33;45.67;;;19.90;;
65234;SDS011;51820;48.374;10.930;2024-03-07T09:33:05;47.53;;;19.90;;
65234;SDS011;51820;48.374;10.930;2024-03-07T09:35:40;46.10;;;20.35;;
65234;SDS011;51820;48.374;10.930;2024-03-07T09:38:08;47.97;;;20.05;;
65234;SDS011;51820;48.374;10.930;2024-03-07T09:40:37;48.63;;;21.15;;
65234;SDS011;51820;48.374;10.930;2024-03-07T09:43:07;44.17;;;19.35;;
65234;SDS011;51820;48.374;10.930;2024-03-07T09:45:37;44.70;;;20.13;;
65234;SDS011;51820;48.374;10.930;2024-03-07T09:48:09;46.00;;;20.45;;
65234;SDS011;51820;48.374;10.930;2024-03-07T09:50:41;48.15;;;20.95;;
65234;SDS011;51820;48.374;10.930;2024-03-07T09:53:12;41.40;;;20.25;;
65234;SDS011;51820;48.374;10.930;2024-03-07T09:55:40;45.92;;;20.40;;
65234;SDS011;51820;48.374;10.930;2024-03-07T09:58:08;45.57;;;20.80;;
65234;SDS011;51820;48.374;10.930;2024-03-07T10:00:39;45.63;;;20.13;;
65234;SDS011;51820;48.374;10.930;2024-03-07T10:03:08;52.92;;;21.73;;
65234;SDS011;51820;48.374;10.930;2024-03-07T10:05:41;49.58;;;21.80;;
65234;SDS011;51820;48.374;10.930;2024-03-07T10:08:10;50.45;;;20.85;;
65234;SDS011;51820;48.374;10.930;2024-03-07T10:10:40;53.37;;;20.50;;
65234;SDS011;51820;48.374;10.930;2024-03-07T10:13:08;44.55;;;20.75;;
65234;SDS011;51820;48.374;10.930;2024-03-07T10:15:38;47.40;;;21.38;;
65234;SDS011;51820;48.374;10.930;2024-03-07T10:18:09;45.97;;;20.75;;
65234;SDS011;51820;48.374;10.930;2024-03-07T10:20:43;48.45;;;21.58;;
65234;SDS011;51820;48.374;10.930;2024-03-07T10:23:11;48.97;;;22.47;;
65234;SDS011;51820;48.374;10.930;2024-03-07T10:25:40;47.80;;;21.42;;
65234;SDS011;51820;48.374;10.930;2024-03-07T10:28:09;44.88;;;21.45;;
65234;SDS011;51820;48.374;10.930;2024-03-07T10:30:40;48.25;;;21.13;;
65234;SDS011;51820;48.374;10.930;2024-03-07T10:33:11;47.90;;;20.23;;
65234;SDS011;51820;48.374;10.930;2024-03-07T10:35:45;47.60;;;21.67;;
65234;SDS011;51820;48.374;10.930;2024-03-07T10:38:16;43.30;;;20.17;;
65234;SDS011;51820;48.374;10.930;2024-03-07T10:40:46;47.40;;;20.70;;
65234;SDS011;51820;48.374;10.930;2024-03-07T10:43:16;43.10;;;20.38;;
65234;SDS011;51820;48.374;10.930;2024-03-07T10:45:48;46.97;;;20.02;;
65234;SDS011;51820;48.374;10.930;2024-03-07T10:48:18;43.43;;;21.30;;
65234;SDS011;51820;48.374;10.930;2024-03-07T10:50:54;48.55;;;21.92;;
65234;SDS011;51820;48.374;10.930;2024-03-07T10:53:35;50.05;;;23.45;;
65234;SDS011;51820;48.374;10.930;2024-03-07T10:56:15;49.45;;;20.80;;
65234;SDS011;51820;48.374;10.930;2024-03-07T10:58:56;42.30;;;19.65;;
65234;SDS011;51820;48.374;10.930;2024-03-07T11:01:26;40.53;;;19.77;;
65234;SDS011;51820;48.374;10.930;2024-03-07T11:04:00;43.75;;;20.48;;
65234;SDS011;51820;48.374;10.930;2024-03-07T11:06:33;41.65;;;18.92;;
65234;SDS011;51820;48.374;10.930;2024-03-07T11:09:03;37.97;;;18.23;;
65234;SDS011;51820;48.374;10.930;2024-03-07T11:11:37;45.20;;;19.65;;
65234;SDS011;51820;48.374;10.930;2024-03-07T11:14:09;40.60;;;18.47;;
65234;SDS011;51820;48.374;10.930;2024-03-07T11:16:38;41.80;;;18.35;;
65234;SDS011;51820;48.374;10.930;2024-03-07T11:19:17;39.85;;;19.70;;
65234;SDS011;51820;48.374;10.930;2024-03-07T11:21:48;39.17;;;18.70;;
65234;SDS011;51820;48.374;10.930;2024-03-07T11:24:23;39.13;;;17.90;;
65234;SDS011;51820;48.374;10.930;2024-03-07T11:26:52;40.07;;;17.70;;
65234;SDS011;51820;48.374;10.930;2024-03-07T11:29:45;41.72;;;18.75;;
65234;SDS011;51820;48.374;10.930;2024-03-07T11:32:20;37.00;;;17.42;;
65234;SDS011;51820;48.374;10.930;2024-03-07T11:34:50;32.80;;;16.52;;
65234;SDS011;51820;48.374;10.930;2024-03-07T11:43:15;37.40;;;17.83;;
65234;SDS011;51820;48.374;10.930;2024-03-07T11:45:43;38.80;;;18.00;;
65234;SDS011;51820;48.374;10.930;2024-03-07T11:48:19;38.05;;;17.50;;
65234;SDS011;51820;48.374;10.930;2024-03-07T11:50:48;42.33;;;18.83;;
65234;SDS011;51820;48.374;10.930;2024-03-07T11:53:17;41.00;;;16.73;;
65234;SDS011;51820;48.374;10.930;2024-03-07T11:55:46;39.97;;;17.65;;
65234;SDS011;51820;48.374;10.930;2024-03-07T11:58:17;35.35;;;17.63;;
65234;SDS011;51820;48.374;10.930;2024-03-07T12:00:49;33.53;;;16.80;;
65234;SDS011;51820;48.374;10.930;2024-03-07T12:03:24;36.60;;;17.00;;
65234;SDS011;51820;48.374;10.930;2024-03-07T12:05:55;35.22;;;15.65;;
65234;SDS011;51820;48.374;10.930;2024-03-07T12:08:27;38.55;;;16.25;;
65234;SDS011;51820;48.374;10.930;2024-03-07T12:10:57;32.67;;;14.88;;
65234;SDS011;51820;48.374;10.930;2024-03-07T12:13:26;35.63;;;15.35;;
65234;SDS011;51820;48.374;10.930;2024-03-07T12:15:59;29.45;;;14.38;;
65234;SDS011;51820;48.374;10.930;2024-03-07T12:18:27;28.85;;;14.13;;
65234;SDS011;51820;48.374;10.930;2024-03-07T12:20:57;31.25;;;13.63;;
65234;SDS011;51820;48.374;10.930;2024-03-07T12:23:26;29.55;;;13.85;;
65234;SDS011;51820;48.374;10.930;2024-03-07T12:26:02;27.42;;;13.75;;
65234;SDS011;51820;48.374;10.930;2024-03-07T12:28:32;32.75;;;14.13;;
65234;SDS011;51820;48.374;10.930;2024-03-07T12:31:02;31.25;;;14.25;;
65234;SDS011;51820;48.374;10.930;2024-03-07T12:33:32;30.52;;;15.38;;
65234;SDS011;51820;48.374;10.930;2024-03-07T12:36:06;28.90;;;13.18;;
65234;SDS011;51820;48.374;10.930;2024-03-07T12:38:36;29.50;;;12.95;;
65234;SDS011;51820;48.374;10.930;2024-03-07T12:41:09;28.45;;;13.68;;
65234;SDS011;51820;48.374;10.930;2024-03-07T12:43:43;26.95;;;12.65;;
65234;SDS011;51820;48.374;10.930;2024-03-07T12:46:12;29.98;;;13.45;;
65234;SDS011;51820;48.374;10.930;2024-03-07T12:48:42;29.65;;;13.52;;
65234;SDS011;51820;48.374;10.930;2024-03-07T12:51:13;27.83;;;13.00;;
65234;SDS011;51820;48.374;10.930;2024-03-07T12:53:46;28.55;;;12.52;;
65234;SDS011;51820;48.374;10.930;2024-03-07T12:56:16;25.48;;;13.10;;
65234;SDS011;51820;48.374;10.930;2024-03-07T12:58:46;29.00;;;13.20;;
65234;SDS011;51820;48.374;10.930;2024-03-07T13:01:17;30.75;;;13.77;;
65234;SDS011;51820;48.374;10.930;2024-03-07T13:03:46;29.63;;;12.60;;
65234;SDS011;51820;48.374;10.930;2024-03-07T13:06:16;26.35;;;12.20;;
65234;SDS011;51820;48.374;10.930;2024-03-07T13:08:53;25.35;;;11.75;;
65234;SDS011;51820;48.374;10.930;2024-03-07T13:11:24;29.58;;;12.73;;
65234;SDS011;51820;48.374;10.930;2024-03-07T13:13:56;29.80;;;11.70;;
65234;SDS011;51820;48.374;10.930;2024-03-07T13:16:25;26.92;;;12.40;;
65234;SDS011;51820;48.374;10.930;2024-03-07T13:18:58;27.02;;;11.05;;
65234;SDS011;51820;48.374;10.930;2024-03-07T13:21:26;24.27;;;12.20;;
65234;SDS011;51820;48.374;10.930;2024-03-07T13:23:56;25.02;;;11.63;;
65234;SDS011;51820;48.374;10.930;2024-03-07T13:26:28;25.17;;;11.80;;
65234;SDS011;51820;48.374;10.930;2024-03-07T13:28:58;27.45;;;11.52;;
65234;SDS011;51820;48.374;10.930;2024-03-07T13:31:28;27.80;;;11.13;;
65234;SDS011;51820;48.374;10.930;2024-03-07T13:33:57;26.30;;;11.60;;
65234;SDS011;51820;48.374;10.930;2024-03-07T13:36:28;26.40;;;11.75;;
65234;SDS011;51820;48.374;10.930;2024-03-07T13:38:57;25.35;;;11.57;;
65234;SDS011;51820;48.374;10.930;2024-03-07T13:41:26;24.02;;;10.80;;
65234;SDS011;51820;48.374;10.930;2024-03-07T13:43:56;26.05;;;11.45;;
65234;SDS011;51820;48.374;10.930;2024-03-07T13:46:26;28.38;;;12.05;;
65234;SDS011;51820;48.374;10.930;2024-03-07T13:48:55;26.58;;;11.23;;
65234;SDS011;51820;48.374;10.930;2024-03-07T13:51:33;31.85;;;11.52;;
65234;SDS011;51820;48.374;10.930;2024-03-07T13:54:03;28.05;;;11.85;;
65234;SDS011;51820;48.374;10.930;2024-03-07T13:56:54;25.65;;;12.00;;
65234;SDS011;51820;48.374;10.930;2024-03-07T13:59:36;28.25;;;12.43;;
65234;SDS011;51820;48.374;10.930;2024-03-07T14:02:17;27.13;;;10.75;;
65234;SDS011;51820;48.374;10.930;2024-03-07T14:05:05;26.73;;;10.70;;
65234;SDS011;51820;48.374;10.930;2024-03-07T14:08:00;23.42;;;11.02;;
65234;SDS011;51820;48.374;10.930;2024-03-07T14:10:51;21.13;;;10.40;;
65234;SDS011;51820;48.374;10.930;2024-03-07T14:13:30;24.63;;;10.95;;
65234;SDS011;51820;48.374;10.930;2024-03-07T14:25:07;30.20;;;12.05;;
65234;SDS011;51820;48.374;10.930;2024-03-07T14:27:53;25.88;;;11.77;;
65234;SDS011;51820;48.374;10.930;2024-03-07T14:30:27;29.73;;;12.60;;
65234;SDS011;51820;48.374;10.930;2024-03-07T14:33:07;28.15;;;13.30;;
65234;SDS011;51820;48.374;10.930;2024-03-07T14:35:39;26.42;;;12.52;;
65234;SDS011;51820;48.374;10.930;2024-03-07T14:38:28;28.02;;;11.90;;
65234;SDS011;51820;48.374;10.930;2024-03-07T14:40:59;25.05;;;10.93;;
65234;SDS011;51820;48.374;10.930;2024-03-07T14:43:30;30.88;;;13.90;;
65234;SDS011;51820;48.374;10.930;2024-03-07T14:45:58;26.05;;;12.27;;